Time;durP1;ratioP1;P1;durP2;ratioP2;P2;SDS_P1;SDS_P2;PMS_P1;PMS_P2;Temp;Humidity;BMP_temperature;BMP_pressure;BME280_temperature;BME280_humidity;BME280_pressure;Samples;Min_cycle;Max_cycle;Signal;HPM_P1;HPM_P2
2022/05/15 00:02:13;;;;;;;22.85;5.07;;;;;;;;;;5282941;28;20247;-67
2022/05/15 00:04:44;;;;;;;22.60;4.75;;;;;;;;;;5281698;28;20463;-67
2022/05/15 00:07:15;;;;;;;20.85;5.22;;;;;;;;;;5282503;28;20429;-68
2022/05/15 00:09:46;;;;;;;25.97;6.30;;;;;;;;;;5282621;28;20115;-67
2022/05/15 00:12:20;;;;;;;24.70;6.45;;;;;;;;;;5281652;28;20271;-68
2022/05/15 00:14:51;;;;;;;26.77;5.85;;;;;;;;;;5282912;28;20681;-67
2022/05/15 00:17:22;;;;;;;23.17;5.60;;;;;;;;;;5282118;28;20052;-68
2022/05/15 00:19:54;;;;;;;23.58;6.13;;;;;;;;;;5281756;28;20118;-68
2022/05/15 00:22:25;;;;;;;21.60;5.18;;;;;;;;;;5281780;28;20063;-68
2022/05/15 00:24:56;;;;;;;24.85;5.43;;;;;;;;;;5281733;28;20407;-68
2022/05/15 00:27:27;;;;;;;22.17;4.70;;;;;;;;;;5281966;28;20056;-68
2022/05/15 00:30:00;;;;;;;25.40;4.60;;;;;;;;;;5282642;28;20675;-67
2022/05/15 00:32:32;;;;;;;22.33;5.45;;;;;;;;;;5281288;28;20275;-68
2022/05/15 00:35:03;;;;;;;20.60;5.80;;;;;;;;;;5282212;28;20548;-66
2022/05/15 00:37:34;;;;;;;20.58;5.55;;;;;;;;;;5281770;28;20111;-68
2022/05/15 00:40:07;;;;;;;21.55;5.05;;;;;;;;;;5281417;28;20016;-67
2022/05/15 00:42:38;;;;;;;28.95;5.60;;;;;;;;;;5281616;28;20592;-67
2022/05/15 00:45:10;;;;;;;24.10;5.90;;;;;;;;;;5281811;28;20027;-67
2022/05/15 00:47:41;;;;;;;17.90;5.32;;;;;;;;;;5280652;28;20115;-68
2022/05/15 00:50:15;;;;;;;22.30;5.60;;;;;;;;;;5281620;28;20024;-67
2022/05/15 00:52:47;;;;;;;21.05;4.50;;;;;;;;;;5280973;28;20387;-66
2022/05/15 00:55:26;;;;;;;20.33;4.65;;;;;;;;;;5280508;28;20027;-67
2022/05/15 00:57:59;;;;;;;18.65;4.10;;;;;;;;;;5281799;28;20016;-67
2022/05/15 01:00:31;;;;;;;24.67;4.90;;;;;;;;;;5280667;28;20066;-67
2022/05/15 01:03:08;;;;;;;21.70;4.72;;;;;;;;;;5281643;28;20016;-67
2022/05/15 01:05:42;;;;;;;21.88;4.78;;;;;;;;;;5281402;28;20016;-67
2022/05/15 01:08:13;;;;;;;23.23;5.47;;;;;;;;;;5280333;28;20020;-67
2022/05/15 01:10:46;;;;;;;25.83;5.67;;;;;;;;;;5281579;28;20374;-67
2022/05/15 01:13:19;;;;;;;26.95;5.55;;;;;;;;;;5281269;28;20746;-68
2022/05/15 01:15:50;;;;;;;24.35;4.88;;;;;;;;;;5280868;28;20020;-67
2022/05/15 01:18:22;;;;;;;19.23;4.80;;;;;;;;;;5280764;28;20379;-68
2022/05/15 01:20:54;;;;;;;23.83;5.93;;;;;;;;;;5280818;28;20025;-67
2022/05/15 01:23:26;;;;;;;24.58;6.25;;;;;;;;;;5280885;28;20082;-67
2022/05/15 01:25:58;;;;;;;22.13;5.18;;;;;;;;;;5281637;28;20519;-68
2022/05/15 01:28:30;;;;;;;21.02;4.60;;;;;;;;;;5280270;28;20020;-67
2022/05/15 01:31:01;;;;;;;22.10;5.10;;;;;;;;;;5281394;28;20467;-68
2022/05/15 01:33:32;;;;;;;27.77;6.25;;;;;;;;;;5280977;28;20027;-67
2022/05/15 01:36:04;;;;;;;24.83;6.47;;;;;;;;;;5280464;28;20289;-67
2022/05/15 01:38:35;;;;;;;21.65;4.65;;;;;;;;;;5281023;28;20270;-67
2022/05/15 01:41:07;;;;;;;25.27;5.38;;;;;;;;;;5281091;28;20017;-67
2022/05/15 01:43:43;;;;;;;22.02;5.85;;;;;;;;;;5280329;28;20028;-67
2022/05/15 01:46:15;;;;;;;20.77;5.57;;;;;;;;;;5281115;28;20109;-67
2022/05/15 01:48:46;;;;;;;22.83;4.88;;;;;;;;;;5281152;28;20088;-68
2022/05/15 01:51:18;;;;;;;21.90;5.57;;;;;;;;;;5280163;28;20029;-68
2022/05/15 01:53:49;;;;;;;27.83;4.93;;;;;;;;;;5280968;28;20017;-68
2022/05/15 01:56:20;;;;;;;26.13;4.93;;;;;;;;;;5279743;28;20490;-68
2022/05/15 01:58:52;;;;;;;16.20;4.68;;;;;;;;;;5281422;28;20471;-68
2022/05/15 02:01:23;;;;;;;22.03;5.80;;;;;;;;;;5280764;28;20479;-68
2022/05/15 02:03:54;;;;;;;18.02;5.05;;;;;;;;;;5280822;28;20271;-68
2022/05/15 02:06:25;;;;;;;21.47;5.03;;;;;;;;;;5280608;28;20025;-68
2022/05/15 02:08:57;;;;;;;22.00;5.28;;;;;;;;;;5285251;28;20273;-68
2022/05/15 02:11:28;;;;;;;17.65;4.95;;;;;;;;;;5284058;28;20274;-68
2022/05/15 02:14:00;;;;;;;24.17;6.00;;;;;;;;;;5285496;28;20016;-68
2022/05/15 02:16:31;;;;;;;27.98;6.20;;;;;;;;;;5284810;28;20112;-68
2022/05/15 02:19:02;;;;;;;21.45;5.13;;;;;;;;;;5284123;28;20056;-68
2022/05/15 02:21:33;;;;;;;22.30;5.20;;;;;;;;;;5284566;28;20406;-68
2022/05/15 02:24:05;;;;;;;17.63;4.25;;;;;;;;;;5283932;28;20649;-68
2022/05/15 02:26:37;;;;;;;21.05;5.07;;;;;;;;;;5284765;28;20581;-67
2022/05/15 02:29:08;;;;;;;23.00;4.68;;;;;;;;;;5284613;28;20024;-67
2022/05/15 02:31:40;;;;;;;23.45;4.85;;;;;;;;;;5283867;28;20032;-67
2022/05/15 02:34:11;;;;;;;24.83;6.10;;;;;;;;;;5284691;28;20087;-67
2022/05/15 02:36:42;;;;;;;25.00;5.30;;;;;;;;;;5284503;28;20029;-68
2022/05/15 02:39:13;;;;;;;23.50;4.77;;;;;;;;;;5283624;28;20068;-67
2022/05/15 02:41:44;;;;;;;22.63;5.18;;;;;;;;;;5284402;28;20262;-70
2022/05/15 02:44:15;;;;;;;18.02;4.63;;;;;;;;;;5284179;28;20825;-68
2022/05/15 02:46:46;;;;;;;22.92;5.82;;;;;;;;;;5283580;28;20322;-68
2022/05/15 02:52:08;;;;;;;20.95;4.32;;;;;;;;;;5284439;28;20259;-68
2022/05/15 02:54:40;;;;;;;20.63;4.47;;;;;;;;;;5283645;28;20017;-68
2022/05/15 02:57:11;;;;;;;22.63;5.00;;;;;;;;;;5284169;28;20021;-68
2022/05/15 02:59:42;;;;;;;25.15;5.63;;;;;;;;;;5283391;28;20020;-68
2022/05/15 03:02:14;;;;;;;21.75;5.10;;;;;;;;;;5284084;28;20016;-68
2022/05/15 03:04:47;;;;;;;30.35;5.28;;;;;;;;;;5283923;28;20281;-68
2022/05/15 03:07:18;;;;;;;17.98;5.05;;;;;;;;;;5282750;28;20082;-68
2022/05/15 03:09:49;;;;;;;28.27;5.32;;;;;;;;;;5284019;28;20475;-68
2022/05/15 03:12:20;;;;;;;20.33;4.93;;;;;;;;;;5283639;28;20483;-68
2022/05/15 03:14:51;;;;;;;28.52;5.25;;;;;;;;;;5283302;28;20270;-66
2022/05/15 03:17:22;;;;;;;22.42;4.30;;;;;;;;;;5283361;28;20274;-67
2022/05/15 03:19:55;;;;;;;24.88;5.28;;;;;;;;;;5282856;28;20302;-67
2022/05/15 03:22:26;;;;;;;26.00;4.97;;;;;;;;;;5282656;28;20036;-67
2022/05/15 03:24:57;;;;;;;24.35;5.03;;;;;;;;;;5283983;28;20035;-68
2022/05/15 03:27:28;;;;;;;17.88;5.35;;;;;;;;;;5282254;28;20295;-67
2022/05/15 03:29:59;;;;;;;22.90;5.25;;;;;;;;;;5283809;28;20391;-68
2022/05/15 03:32:31;;;;;;;25.83;4.90;;;;;;;;;;5283304;28;20032;-67
2022/05/15 03:35:02;;;;;;;24.60;5.15;;;;;;;;;;5282561;28;20100;-68
2022/05/15 03:37:34;;;;;;;20.65;5.30;;;;;;;;;;5283003;28;20425;-68
2022/05/15 03:40:05;;;;;;;25.67;6.20;;;;;;;;;;5283140;28;20020;-68
2022/05/15 03:42:37;;;;;;;21.25;5.50;;;;;;;;;;5282201;28;20055;-68
2022/05/15 03:45:08;;;;;;;20.85;5.00;;;;;;;;;;5283190;28;20079;-68
2022/05/15 03:47:47;;;;;;;20.25;5.47;;;;;;;;;;5283082;28;20059;-68
2022/05/15 03:50:22;;;;;;;24.13;6.30;;;;;;;;;;5281970;28;20017;-68
2022/05/15 03:52:53;;;;;;;28.40;5.32;;;;;;;;;;5283103;28;20107;-68
2022/05/15 03:55:25;;;;;;;22.60;5.75;;;;;;;;;;5282778;28;20100;-68
2022/05/15 03:57:56;;;;;;;23.80;6.47;;;;;;;;;;5282616;28;20020;-68
2022/05/15 04:00:28;;;;;;;24.48;5.68;;;;;;;;;;5282639;28;20082;-69
2022/05/15 04:03:00;;;;;;;23.27;5.18;;;;;;;;;;5282190;28;20044;-68
2022/05/15 04:05:32;;;;;;;28.48;5.85;;;;;;;;;;5282265;28;20418;-68
2022/05/15 04:08:04;;;;;;;29.38;6.80;;;;;;;;;;5282668;28;20024;-68
2022/05/15 04:10:35;;;;;;;21.27;5.78;;;;;;;;;;5281736;28;20464;-68
2022/05/15 04:13:06;;;;;;;25.52;5.90;;;;;;;;;;5282630;28;20020;-68
2022/05/15 04:15:37;;;;;;;25.92;5.65;;;;;;;;;;5282520;28;20357;-68
2022/05/15 04:18:11;;;;;;;29.83;5.63;;;;;;;;;;5281487;28;20286;-67
2022/05/15 04:20:43;;;;;;;25.40;5.38;;;;;;;;;;5282108;28;20150;-67
2022/05/15 04:23:14;;;;;;;26.85;5.85;;;;;;;;;;5282266;28;20028;-67
2022/05/15 04:25:45;;;;;;;25.73;5.40;;;;;;;;;;5281388;28;20079;-68
2022/05/15 04:28:16;;;;;;;25.67;6.03;;;;;;;;;;5282011;28;20051;-68
2022/05/15 04:30:48;;;;;;;26.90;5.22;;;;;;;;;;5281380;28;20020;-68
2022/05/15 04:33:19;;;;;;;21.88;5.47;;;;;;;;;;5281725;28;20298;-67
2022/05/15 04:35:50;;;;;;;23.77;5.90;;;;;;;;;;5282517;28;20078;-68
2022/05/15 04:38:22;;;;;;;25.00;5.85;;;;;;;;;;5280849;28;20258;-68
2022/05/15 04:40:53;;;;;;;18.63;5.28;;;;;;;;;;5282278;28;20024;-68
2022/05/15 04:43:24;;;;;;;22.50;5.88;;;;;;;;;;5281816;28;20954;-68
2022/05/15 04:45:55;;;;;;;20.65;5.25;;;;;;;;;;5281221;28;20326;-67
2022/05/15 04:48:26;;;;;;;20.75;5.07;;;;;;;;;;5281386;28;20627;-68
2022/05/15 04:50:57;;;;;;;24.33;5.45;;;;;;;;;;5282089;28;20313;-68
2022/05/15 04:53:30;;;;;;;22.55;6.70;;;;;;;;;;5280528;28;20362;-68
2022/05/15 04:56:01;;;;;;;26.15;6.20;;;;;;;;;;5281882;28;20013;-68
2022/05/15 04:58:32;;;;;;;28.77;5.47;;;;;;;;;;5281838;28;20047;-68
2022/05/15 05:01:03;;;;;;;22.65;5.47;;;;;;;;;;5280820;28;20107;-68
2022/05/15 05:03:35;;;;;;;24.00;5.40;;;;;;;;;;5281562;28;20778;-68
2022/05/15 05:06:06;;;;;;;24.80;6.18;;;;;;;;;;5280568;28;20278;-68
2022/05/15 05:08:37;;;;;;;29.52;5.72;;;;;;;;;;5281612;28;20024;-68
2022/05/15 05:11:09;;;;;;;29.00;5.53;;;;;;;;;;5281425;28;20020;-68
2022/05/15 05:13:40;;;;;;;23.05;5.68;;;;;;;;;;5280559;28;20025;-68
2022/05/15 05:16:11;;;;;;;27.38;6.60;;;;;;;;;;5281254;28;20405;-68
2022/05/15 05:18:42;;;;;;;28.17;5.82;;;;;;;;;;5281372;28;20299;-67
2022/05/15 05:21:13;;;;;;;19.35;5.28;;;;;;;;;;5280696;28;20439;-67
2022/05/15 05:23:44;;;;;;;24.20;5.93;;;;;;;;;;5281381;28;20270;-67
2022/05/15 05:26:15;;;;;;;22.55;4.85;;;;;;;;;;5281193;28;20298;-69
2022/05/15 05:28:47;;;;;;;23.67;5.72;;;;;;;;;;5280449;28;20313;-68
2022/05/15 05:31:18;;;;;;;23.15;5.70;;;;;;;;;;5281155;28;20025;-69
2022/05/15 05:33:50;;;;;;;24.15;5.78;;;;;;;;;;5281636;28;20020;-68
2022/05/15 05:36:21;;;;;;;26.83;6.70;;;;;;;;;;5280020;28;20262;-68
2022/05/15 05:38:52;;;;;;;26.53;6.97;;;;;;;;;;5281419;28;20028;-68
2022/05/15 05:41:23;;;;;;;24.95;6.40;;;;;;;;;;5279460;28;20290;-68
2022/05/15 05:43:54;;;;;;;22.52;6.47;;;;;;;;;;5281268;28;20383;-68
2022/05/15 05:46:29;;;;;;;18.60;5.28;;;;;;;;;;5280831;28;20797;-67
2022/05/15 05:49:00;;;;;;;22.98;5.65;;;;;;;;;;5280571;28;20024;-69
2022/05/15 05:51:31;;;;;;;22.52;5.85;;;;;;;;;;5280899;28;20024;-68
2022/05/15 05:54:02;;;;;;;23.77;5.50;;;;;;;;;;5281125;28;20029;-67
2022/05/15 05:56:33;;;;;;;20.83;6.63;;;;;;;;;;5280225;28;20622;-67
2022/05/15 05:59:05;;;;;;;20.20;5.72;;;;;;;;;;5281205;28;20439;-67
2022/05/15 06:01:36;;;;;;;22.73;6.07;;;;;;;;;;5281009;28;20277;-68
2022/05/15 06:06:57;;;;;;;24.20;6.53;;;;;;;;;;5281140;28;20385;-68
2022/05/15 06:09:28;;;;;;;19.83;6.18;;;;;;;;;;5279539;28;20523;-68
2022/05/15 06:11:59;;;;;;;21.10;6.70;;;;;;;;;;5281098;28;20729;-68
2022/05/15 06:14:30;;;;;;;20.63;6.57;;;;;;;;;;5280556;28;20258;-67
2022/05/15 06:17:02;;;;;;;18.77;6.50;;;;;;;;;;5280056;28;20012;-68
2022/05/15 06:19:34;;;;;;;20.90;6.13;;;;;;;;;;5280432;28;20045;-68
2022/05/15 06:22:05;;;;;;;18.73;5.63;;;;;;;;;;5280753;28;20040;-68
2022/05/15 06:24:36;;;;;;;17.88;5.97;;;;;;;;;;5279835;28;20130;-68
2022/05/15 06:27:07;;;;;;;23.37;6.63;;;;;;;;;;5280509;28;20611;-67
2022/05/15 06:29:39;;;;;;;21.50;7.20;;;;;;;;;;5280909;28;20291;-68
2022/05/15 06:32:10;;;;;;;18.65;6.30;;;;;;;;;;5279948;28;20020;-67
2022/05/15 06:34:41;;;;;;;22.23;7.30;;;;;;;;;;5280641;28;20024;-67
2022/05/15 06:37:13;;;;;;;23.58;6.88;;;;;;;;;;5280235;28;20369;-67
2022/05/15 06:39:44;;;;;;;21.85;6.82;;;;;;;;;;5279967;28;20027;-68
2022/05/15 06:42:15;;;;;;;18.20;6.15;;;;;;;;;;5280743;28;20792;-67
2022/05/15 06:44:46;;;;;;;19.92;6.80;;;;;;;;;;5279952;28;20259;-67
2022/05/15 06:47:17;;;;;;;20.23;6.57;;;;;;;;;;5280527;28;20291;-68
2022/05/15 06:49:48;;;;;;;19.58;7.63;;;;;;;;;;5280494;28;20355;-68
2022/05/15 06:52:19;;;;;;;22.83;6.70;;;;;;;;;;5279367;28;20262;-68
2022/05/15 06:54:51;;;;;;;18.73;5.88;;;;;;;;;;5283067;28;20040;-67
2022/05/15 06:57:28;;;;;;;19.20;6.25;;;;;;;;;;5283853;28;20071;-67
2022/05/15 07:00:01;;;;;;;16.60;5.80;;;;;;;;;;5283692;28;20028;-68
2022/05/15 07:02:32;;;;;;;16.17;6.95;;;;;;;;;;5283789;28;20032;-68
2022/05/15 07:05:04;;;;;;;17.58;6.40;;;;;;;;;;5284250;28;20013;-69
2022/05/15 07:07:36;;;;;;;16.40;6.05;;;;;;;;;;5283027;28;20055;-69
2022/05/15 07:10:07;;;;;;;16.80;6.47;;;;;;;;;;5283898;28;20371;-68
2022/05/15 07:12:39;;;;;;;14.90;5.85;;;;;;;;;;5283182;28;20029;-68
2022/05/15 07:15:11;;;;;;;15.25;5.47;;;;;;;;;;5283753;28;20033;-67
2022/05/15 07:17:42;;;;;;;15.60;6.10;;;;;;;;;;5283942;28;20099;-68
2022/05/15 07:20:13;;;;;;;19.60;5.83;;;;;;;;;;5282812;28;20123;-67
2022/05/15 07:22:44;;;;;;;18.05;5.82;;;;;;;;;;5283353;28;20325;-68
2022/05/15 07:25:16;;;;;;;15.50;5.65;;;;;;;;;;5284000;28;20013;-68
2022/05/15 07:27:47;;;;;;;21.05;6.13;;;;;;;;;;5282772;28;20090;-68
2022/05/15 07:30:18;;;;;;;16.25;5.43;;;;;;;;;;5283261;28;20090;-68
2022/05/15 07:32:50;;;;;;;20.55;6.10;;;;;;;;;;5283921;28;20452;-68
2022/05/15 07:35:21;;;;;;;17.40;5.97;;;;;;;;;;5282471;28;20020;-68
2022/05/15 07:37:52;;;;;;;14.32;6.25;;;;;;;;;;5283736;28;20380;-68
2022/05/15 07:40:23;;;;;;;18.15;6.85;;;;;;;;;;5282957;28;20070;-68
2022/05/15 07:42:55;;;;;;;16.08;5.82;;;;;;;;;;5282781;28;20414;-68
2022/05/15 07:45:26;;;;;;;12.35;5.97;;;;;;;;;;5282978;28;20436;-67
2022/05/15 07:47:57;;;;;;;17.23;5.60;;;;;;;;;;5282851;28;20052;-67
2022/05/15 07:50:29;;;;;;;14.80;5.88;;;;;;;;;;5282615;28;20320;-68
2022/05/15 07:53:00;;;;;;;17.40;6.28;;;;;;;;;;5283694;28;20410;-69
2022/05/15 07:55:31;;;;;;;15.20;6.00;;;;;;;;;;5282241;28;20017;-69
2022/05/15 07:58:02;;;;;;;15.80;6.75;;;;;;;;;;5283274;28;20021;-69
2022/05/15 08:00:33;;;;;;;17.27;5.93;;;;;;;;;;5282846;28;20028;-69
2022/05/15 08:03:07;;;;;;;14.05;5.78;;;;;;;;;;5278713;28;20110;-68
2022/05/15 08:08:28;;;;;;;14.35;5.30;;;;;;;;;;5281603;28;20486;-68
2022/05/15 08:11:00;;;;;;;16.20;5.47;;;;;;;;;;5282021;28;20016;-69
2022/05/15 08:13:31;;;;;;;15.10;5.70;;;;;;;;;;5282354;28;20062;-70
2022/05/15 08:16:03;;;;;;;16.40;6.15;;;;;;;;;;5281972;28;20024;-69
2022/05/15 08:24:14;;;;;;;14.60;5.40;;;;;;;;;;5281357;28;20028;-67
2022/05/15 08:26:45;;;;;;;12.20;4.47;;;;;;;;;;5282169;28;20033;-69
2022/05/15 08:29:18;;;;;;;13.30;5.05;;;;;;;;;;5281970;28;20021;-69
2022/05/15 08:31:49;;;;;;;15.65;5.10;;;;;;;;;;5281467;28;20494;-69
2022/05/15 08:34:20;;;;;;;13.50;4.35;;;;;;;;;;5281598;28;20021;-69
2022/05/15 08:36:51;;;;;;;14.55;4.80;;;;;;;;;;5281724;28;20066;-70
2022/05/15 08:39:23;;;;;;;12.77;5.13;;;;;;;;;;5281481;28;20024;-69
2022/05/15 08:41:57;;;;;;;15.05;5.35;;;;;;;;;;5282057;28;20375;-69
2022/05/15 08:44:33;;;;;;;15.60;5.15;;;;;;;;;;5280615;28;20021;-69
2022/05/15 08:47:31;;;;;;;12.20;4.72;;;;;;;;;;5282082;28;20425;-69
2022/05/15 08:50:08;;;;;;;13.98;4.80;;;;;;;;;;5281940;28;20048;-69
2022/05/15 08:52:54;;;;;;;14.65;4.05;;;;;;;;;;5281048;28;20023;-69
2022/05/15 08:55:32;;;;;;;14.68;4.55;;;;;;;;;;5281524;28;20033;-70
2022/05/15 08:58:05;;;;;;;13.32;3.50;;;;;;;;;;5281119;28;20027;-70
2022/05/15 09:00:42;;;;;;;16.20;4.45;;;;;;;;;;5281689;28;20483;-70
2022/05/15 09:03:16;;;;;;;15.87;4.37;;;;;;;;;;5281730;28;20356;-70
2022/05/15 09:05:59;;;;;;;12.43;3.20;;;;;;;;;;5280893;28;20446;-71
2022/05/15 09:08:49;;;;;;;13.23;3.88;;;;;;;;;;5281054;28;20471;-70
2022/05/15 09:11:40;;;;;;;15.52;3.67;;;;;;;;;;5281098;28;20027;-69
2022/05/15 09:14:12;;;;;;;12.20;3.70;;;;;;;;;;5258935;28;20035;-70
2022/05/15 09:16:52;;;;;;;11.40;3.13;;;;;;;;;;5280510;28;20024;-71
2022/05/15 09:19:23;;;;;;;12.85;2.38;;;;;;;;;;5280019;28;20047;-71
2022/05/15 09:21:55;;;;;;;10.87;3.13;;;;;;;;;;5281488;28;20463;-71
2022/05/15 09:24:34;;;;;;;12.80;2.40;;;;;;;;;;5280773;28;20258;-70
2022/05/15 09:27:16;;;;;;;12.95;3.15;;;;;;;;;;5280690;28;20032;-69
2022/05/15 09:29:51;;;;;;;15.10;2.80;;;;;;;;;;5281282;28;20476;-67
2022/05/15 09:32:42;;;;;;;10.88;2.78;;;;;;;;;;5280672;28;20084;-68
2022/05/15 09:35:37;;;;;;;14.68;2.78;;;;;;;;;;5280404;28;20020;-67
2022/05/15 09:38:27;;;;;;;12.55;3.20;;;;;;;;;;5274617;28;20492;-68
2022/05/15 09:44:07;;;;;;;11.68;2.65;;;;;;;;;;5281009;28;20100;-68
2022/05/15 09:46:40;;;;;;;8.15;1.92;;;;;;;;;;5280160;28;20123;-67
2022/05/15 09:49:20;;;;;;;10.55;1.85;;;;;;;;;;5279655;28;20044;-68
2022/05/15 09:51:52;;;;;;;7.22;1.90;;;;;;;;;;5280634;28;20032;-68
2022/05/15 09:54:29;;;;;;;8.00;1.33;;;;;;;;;;5279662;28;20024;-69
2022/05/15 09:57:19;;;;;;;10.50;1.98;;;;;;;;;;5281221;28;20488;-70
2022/05/15 09:59:52;;;;;;;12.13;1.98;;;;;;;;;;5281090;28;20017;-70
2022/05/15 10:02:25;;;;;;;8.27;1.63;;;;;;;;;;5280008;28;20169;-71
2022/05/15 10:04:56;;;;;;;10.65;2.30;;;;;;;;;;5281304;28;20062;-70
2022/05/15 10:07:32;;;;;;;7.80;1.73;;;;;;;;;;5280512;28;20086;-71
2022/05/15 10:10:42;;;;;;;9.80;1.77;;;;;;;;;;5280101;28;20070;-70
2022/05/15 10:13:22;;;;;;;6.95;1.35;;;;;;;;;;5236882;28;20108;-72
2022/05/15 10:15:56;;;;;;;5.85;1.15;;;;;;;;;;5236484;28;20017;-71
2022/05/15 10:18:30;;;;;;;8.80;1.40;;;;;;;;;;5264533;28;20051;-71
2022/05/15 10:21:01;;;;;;;7.22;1.10;;;;;;;;;;5281065;28;20479;-71
2022/05/15 10:23:45;;;;;;;8.25;1.30;;;;;;;;;;5280130;28;20012;-71
2022/05/15 10:26:32;;;;;;;6.82;1.33;;;;;;;;;;5280672;28;20024;-70
2022/05/15 10:29:23;;;;;;;6.82;1.63;;;;;;;;;;5283387;28;20020;-71
2022/05/15 10:31:57;;;;;;;7.65;1.65;;;;;;;;;;5285038;28;20079;-71
2022/05/15 10:34:31;;;;;;;6.30;1.35;;;;;;;;;;5284041;28;20020;-71
2022/05/15 10:37:31;;;;;;;8.05;1.95;;;;;;;;;;5283901;28;20020;-72
2022/05/15 10:40:05;;;;;;;9.25;1.55;;;;;;;;;;5275068;28;20024;-71
2022/05/15 10:42:44;;;;;;;5.25;1.10;;;;;;;;;;5284312;28;20052;-71
2022/05/15 10:45:34;;;;;;;12.35;1.60;;;;;;;;;;5283468;28;20523;-70
2022/05/15 10:48:17;;;;;;;9.13;1.63;;;;;;;;;;5284431;28;20067;-70
2022/05/15 10:51:03;;;;;;;7.95;1.58;;;;;;;;;;5283618;28;20017;-69
2022/05/15 10:59:41;;;;;;;7.60;1.77;;;;;;;;;;5282817;28;20036;-69
2022/05/15 11:02:31;;;;;;;10.23;1.88;;;;;;;;;;5283584;28;20475;-68
2022/05/15 11:05:09;;;;;;;6.28;1.08;;;;;;;;;;5283384;28;20040;-69
2022/05/15 11:07:49;;;;;;;8.15;1.55;;;;;;;;;;5284131;28;20391;-68
2022/05/15 11:10:39;;;;;;;6.40;1.25;;;;;;;;;;5283473;28;20036;-69
2022/05/15 11:13:17;;;;;;;11.15;1.50;;;;;;;;;;5283474;28;20048;-69
2022/05/15 11:16:10;;;;;;;7.50;1.40;;;;;;;;;;5283896;28;20094;-69
2022/05/15 11:19:00;;;;;;;10.70;1.70;;;;;;;;;;5282884;28;20092;-69
2022/05/15 11:21:50;;;;;;;8.38;1.08;;;;;;;;;;5278566;28;20034;-68
2022/05/15 11:24:40;;;;;;;10.70;1.35;;;;;;;;;;5283257;28;20024;-69
2022/05/15 11:27:24;;;;;;;7.38;1.20;;;;;;;;;;5282744;28;20135;-68
2022/05/15 11:29:57;;;;;;;7.90;1.10;;;;;;;;;;5283710;28;20028;-70
2022/05/15 11:32:31;;;;;;;9.55;1.48;;;;;;;;;;5282375;28;20082;-70
2022/05/15 11:35:21;;;;;;;3.78;0.60;;;;;;;;;;5282833;28;20051;-69
2022/05/15 11:37:52;;;;;;;5.38;1.15;;;;;;;;;;5283838;28;20020;-71
2022/05/15 11:40:53;;;;;;;5.88;1.00;;;;;;;;;;5281600;28;20432;-70
2022/05/15 11:43:28;;;;;;;7.20;1.30;;;;;;;;;;5273660;28;20384;-70
2022/05/15 11:46:07;;;;;;;5.55;0.75;;;;;;;;;;5283443;28;20432;-70
2022/05/15 11:48:38;;;;;;;6.70;0.88;;;;;;;;;;5282712;28;20024;-69
2022/05/15 11:51:12;;;;;;;5.88;1.20;;;;;;;;;;5283084;28;20024;-71
2022/05/15 11:53:52;;;;;;;7.82;1.00;;;;;;;;;;5282894;28;20024;-70
2022/05/15 11:56:32;;;;;;;7.07;1.02;;;;;;;;;;5282563;28;20066;-70
2022/05/15 11:59:09;;;;;;;10.13;1.27;;;;;;;;;;5283242;28;20475;-71
2022/05/15 12:01:42;;;;;;;6.45;0.90;;;;;;;;;;5282629;28;20033;-72
2022/05/15 12:04:39;;;;;;;4.95;1.00;;;;;;;;;;5282796;28;20029;-71
2022/05/15 12:07:13;;;;;;;7.18;1.30;;;;;;;;;;5282787;28;20348;-71
2022/05/15 12:09:46;;;;;;;6.93;0.93;;;;;;;;;;5282101;28;20111;-71
2022/05/15 12:12:34;;;;;;;7.57;1.02;;;;;;;;;;5282481;28;20052;-70
2022/05/15 12:15:12;;;;;;;7.40;0.88;;;;;;;;;;5281537;28;20054;-70
2022/05/15 12:17:44;;;;;;;6.47;1.02;;;;;;;;;;5282450;28;20082;-69
2022/05/15 12:20:18;;;;;;;6.30;1.10;;;;;;;;;;5282309;28;20076;-69
2022/05/15 12:22:55;;;;;;;7.10;1.13;;;;;;;;;;5281947;28;20359;-69
2022/05/15 12:25:31;;;;;;;8.68;1.30;;;;;;;;;;5281662;28;20020;-70
2022/05/15 12:31:12;;;;;;;5.47;1.05;;;;;;;;;;5281539;28;20412;-70
2022/05/15 12:33:43;;;;;;;9.40;1.13;;;;;;;;;;5282173;28;20016;-71
2022/05/15 12:36:20;;;;;;;5.95;0.95;;;;;;;;;;5281182;28;20131;-71
2022/05/15 12:38:54;;;;;;;5.25;1.23;;;;;;;;;;5282426;28;20073;-70
2022/05/15 12:41:27;;;;;;;5.55;0.90;;;;;;;;;;5281746;28;20224;-70
2022/05/15 12:44:00;;;;;;;8.82;0.80;;;;;;;;;;5281361;28;20048;-70
2022/05/15 12:46:36;;;;;;;5.82;0.90;;;;;;;;;;5281298;28;20032;-70
2022/05/15 12:49:08;;;;;;;5.85;1.33;;;;;;;;;;5281649;28;20036;-70
2022/05/15 12:51:40;;;;;;;6.80;0.80;;;;;;;;;;5280821;28;20032;-70
2022/05/15 12:54:28;;;;;;;9.00;1.17;;;;;;;;;;5281672;28;20474;-70
2022/05/15 12:57:01;;;;;;;5.53;0.90;;;;;;;;;;5281803;28;20024;-70
2022/05/15 12:59:36;;;;;;;11.65;1.90;;;;;;;;;;5280894;28;20375;-70
2022/05/15 13:02:15;;;;;;;5.78;1.30;;;;;;;;;;5281565;28;20032;-69
2022/05/15 13:04:48;;;;;;;6.10;1.15;;;;;;;;;;5280711;28;20039;-69
2022/05/15 13:07:27;;;;;;;6.45;1.50;;;;;;;;;;5280611;28;20495;-68
2022/05/15 13:10:00;;;;;;;11.23;1.58;;;;;;;;;;5281678;28;20101;-68
2022/05/15 13:12:31;;;;;;;9.00;1.50;;;;;;;;;;5280271;28;20088;-68
2022/05/15 13:15:03;;;;;;;6.37;1.33;;;;;;;;;;5281399;28;20355;-68
2022/05/15 13:17:36;;;;;;;8.32;1.10;;;;;;;;;;5280886;28;20306;-68
2022/05/15 13:20:10;;;;;;;8.73;0.82;;;;;;;;;;5279865;28;20123;-68
2022/05/15 13:22:42;;;;;;;6.55;0.90;;;;;;;;;;5280403;28;20032;-69
2022/05/15 13:25:18;;;;;;;5.18;1.15;;;;;;;;;;5279698;28;20024;-69
2022/05/15 13:27:49;;;;;;;5.43;0.75;;;;;;;;;;5281121;28;20146;-69
2022/05/15 13:30:22;;;;;;;6.45;0.93;;;;;;;;;;5280500;28;20115;-70
2022/05/15 13:32:59;;;;;;;6.90;2.78;;;;;;;;;;5280352;28;20025;-72
2022/05/15 13:35:35;;;;;;;6.22;0.88;;;;;;;;;;5280952;28;20028;-71
2022/05/15 13:38:32;;;;;;;6.20;0.82;;;;;;;;;;5280994;28;20487;-71
2022/05/15 13:43:58;;;;;;;4.57;0.60;;;;;;;;;;5280154;28;20024;-71
2022/05/15 13:46:30;;;;;;;8.23;0.90;;;;;;;;;;5278255;28;20086;-71
2022/05/15 13:49:03;;;;;;;3.97;0.70;;;;;;;;;;5279566;28;20456;-71
2022/05/15 13:51:37;;;;;;;10.43;0.80;;;;;;;;;;5279430;28;20044;-71
2022/05/15 13:54:27;;;;;;;7.53;0.93;;;;;;;;;;5278774;28;20406;-72
2022/05/15 13:56:58;;;;;;;4.47;0.80;;;;;;;;;;5280683;28;20051;-72
2022/05/15 13:59:34;;;;;;;5.70;0.73;;;;;;;;;;5279553;28;20051;-71
2022/05/15 14:02:10;;;;;;;6.47;1.02;;;;;;;;;;5278897;28;20029;-72
2022/05/15 14:04:42;;;;;;;5.55;0.80;;;;;;;;;;5283086;28;20107;-71
2022/05/15 14:07:31;;;;;;;4.55;0.80;;;;;;;;;;5283209;28;20430;-71
2022/05/15 14:10:15;;;;;;;4.63;1.38;;;;;;;;;;5281585;28;20008;-71
2022/05/15 14:12:52;;;;;;;5.90;0.98;;;;;;;;;;5283357;28;20044;-71
2022/05/15 14:15:26;;;;;;;8.15;0.98;;;;;;;;;;5279748;28;20083;-71
2022/05/15 14:17:58;;;;;;;5.78;0.70;;;;;;;;;;5283444;28;20035;-71
2022/05/15 14:20:29;;;;;;;6.38;0.70;;;;;;;;;;5282997;28;20045;-71
2022/05/15 14:23:01;;;;;;;8.17;1.20;;;;;;;;;;5282794;28;20040;-72
2022/05/15 14:25:33;;;;;;;5.75;0.70;;;;;;;;;;5283064;28;20278;-71
2022/05/15 14:28:05;;;;;;;6.63;0.90;;;;;;;;;;5282905;28;20039;-72
2022/05/15 14:30:36;;;;;;;3.63;0.63;;;;;;;;;;5283328;28;20021;-71
2022/05/15 14:33:08;;;;;;;6.00;0.75;;;;;;;;;;5283971;28;20293;-72
2022/05/15 14:35:41;;;;;;;4.72;0.65;;;;;;;;;;5283729;28;20019;-71
2022/05/15 14:38:12;;;;;;;4.68;0.55;;;;;;;;;;5283555;28;20024;-71
2022/05/15 14:40:44;;;;;;;6.67;0.60;;;;;;;;;;5284171;28;20383;-74
2022/05/15 14:43:15;;;;;;;4.50;1.05;;;;;;;;;;5283291;28;20052;-72
2022/05/15 14:45:50;;;;;;;5.57;0.60;;;;;;;;;;5284212;28;20478;-71
2022/05/15 14:48:23;;;;;;;5.80;0.70;;;;;;;;;;5283454;28;20037;-72
2022/05/15 14:50:54;;;;;;;5.13;0.60;;;;;;;;;;5283168;28;20027;-71
2022/05/15 14:53:29;;;;;;;4.68;0.90;;;;;;;;;;5282738;28;20527;-71
2022/05/15 14:56:10;;;;;;;4.30;0.50;;;;;;;;;;5283005;28;20028;-72
2022/05/15 14:58:54;;;;;;;5.93;0.68;;;;;;;;;;5282617;28;20024;-71
2022/05/15 15:01:25;;;;;;;7.00;0.73;;;;;;;;;;5283664;28;20426;-71
2022/05/15 15:03:56;;;;;;;5.43;0.50;;;;;;;;;;5283173;28;20032;-71
2022/05/15 15:06:27;;;;;;;2.77;0.60;;;;;;;;;;5282639;28;20028;-72
2022/05/15 15:08:59;;;;;;;4.93;1.38;;;;;;;;;;5283263;28;20270;-73
2022/05/15 15:11:31;;;;;;;4.05;0.70;;;;;;;;;;5282589;28;20056;-72
2022/05/15 15:14:06;;;;;;;4.50;0.60;;;;;;;;;;5282682;28;20051;-72
2022/05/15 15:16:42;;;;;;;3.67;0.63;;;;;;;;;;5282663;28;20016;-72
2022/05/15 15:19:14;;;;;;;5.50;1.02;;;;;;;;;;5281801;28;20043;-72
2022/05/15 15:21:46;;;;;;;5.65;0.60;;;;;;;;;;5283081;28;20024;-72
2022/05/15 15:24:17;;;;;;;5.43;1.20;;;;;;;;;;5283508;28;20133;-72
2022/05/15 15:26:49;;;;;;;5.63;0.60;;;;;;;;;;5282476;28;20098;-73
2022/05/15 15:29:21;;;;;;;7.07;1.25;;;;;;;;;;5282729;28;20340;-73
2022/05/15 15:31:52;;;;;;;4.10;0.57;;;;;;;;;;5282717;28;20063;-72
2022/05/15 15:34:24;;;;;;;3.97;0.75;;;;;;;;;;5282932;28;20021;-72
2022/05/15 15:39:59;;;;;;;3.78;0.60;;;;;;;;;;5259293;28;20043;-72
2022/05/15 15:42:30;;;;;;;5.70;0.60;;;;;;;;;;5282809;28;20323;-73
2022/05/15 15:45:04;;;;;;;2.97;0.73;;;;;;;;;;5282419;28;20023;-73
2022/05/15 15:47:35;;;;;;;6.47;1.10;;;;;;;;;;5281982;28;20369;-73